Time;durP1;ratioP1;P1;durP2;ratioP2;P2;SDS_P1;SDS_P2;PMS_P1;PMS_P2;Temp;Humidity;BMP_temperature;BMP_pressure;BME280_temperature;BME280_humidity;BME280_pressure;Samples;Min_cycle;Max_cycle;Signal;HPM_P1;HPM_P2
2023/07/14 04:03:11;;;;;;;1.50;1.50;;;;;;;;;;4956679;29;20240;-67
2023/07/14 04:05:38;;;;;;;1.40;1.40;;;;;;;;;;4956825;29;20200;-67
2023/07/14 04:08:05;;;;;;;1.38;1.38;;;;;;;;;;4956596;29;20208;-66
2023/07/14 04:10:32;;;;;;;1.50;1.50;;;;;;;;;;4956549;29;20255;-66
2023/07/14 04:12:59;;;;;;;1.45;1.35;;;;;;;;;;4956727;29;20204;-66
2023/07/14 04:15:26;;;;;;;1.70;1.60;;;;;;;;;;4956994;29;20208;-66
2023/07/14 04:17:53;;;;;;;1.35;1.35;;;;;;;;;;4956242;29;20200;-67
2023/07/14 04:20:22;;;;;;;1.60;1.60;;;;;;;;;;4956417;29;20224;-67
2023/07/14 04:22:49;;;;;;;1.15;1.15;;;;;;;;;;4956174;29;20663;-67
2023/07/14 04:25:16;;;;;;;1.67;1.60;;;;;;;;;;4955859;28;20211;-67
2023/07/14 04:27:43;;;;;;;1.50;1.40;;;;;;;;;;4956086;29;20200;-67
2023/07/14 04:30:10;;;;;;;1.20;1.20;;;;;;;;;;4956310;29;20274;-68
2023/07/14 04:32:37;;;;;;;1.25;1.25;;;;;;;;;;4957073;29;20215;-66
2023/07/14 04:35:06;;;;;;;1.30;1.30;;;;;;;;;;4957204;29;20204;-66
2023/07/14 04:37:34;;;;;;;1.70;1.60;;;;;;;;;;4956546;29;20204;-67
2023/07/14 04:40:02;;;;;;;1.20;1.20;;;;;;;;;;4956809;29;20204;-67
2023/07/14 04:42:29;;;;;;;1.20;1.20;;;;;;;;;;4956265;29;20208;-67
2023/07/14 04:44:56;;;;;;;2.35;1.38;;;;;;;;;;4955887;29;20698;-67
2023/07/14 04:47:23;;;;;;;2.13;1.08;;;;;;;;;;4957063;29;20207;-67
2023/07/14 04:49:50;;;;;;;1.25;1.25;;;;;;;;;;4955772;29;20564;-67
2023/07/14 04:52:18;;;;;;;1.05;1.05;;;;;;;;;;4955666;29;20668;-67
2023/07/14 04:54:46;;;;;;;0.90;0.90;;;;;;;;;;4955765;29;20746;-68
2023/07/14 04:57:13;;;;;;;1.13;1.13;;;;;;;;;;4956268;29;20567;-68
2023/07/14 04:59:40;;;;;;;1.10;1.10;;;;;;;;;;4956501;29;20199;-68
2023/07/14 05:02:08;;;;;;;1.20;1.20;;;;;;;;;;4957488;29;20230;-67
2023/07/14 05:04:39;;;;;;;0.90;0.90;;;;;;;;;;4958239;29;20211;-67
2023/07/14 05:07:06;;;;;;;0.98;0.98;;;;;;;;;;4956056;29;20188;-68
2023/07/14 05:09:35;;;;;;;1.30;1.30;;;;;;;;;;4955685;29;20223;-68
2023/07/14 05:12:05;;;;;;;1.00;1.00;;;;;;;;;;4955482;29;20235;-69
2023/07/14 05:14:32;;;;;;;0.90;0.90;;;;;;;;;;4956017;29;20274;-69
2023/07/14 05:16:59;;;;;;;1.90;1.10;;;;;;;;;;4955492;29;20561;-70
2023/07/14 05:19:28;;;;;;;1.45;0.93;;;;;;;;;;4955574;29;20206;-70
2023/07/14 05:21:55;;;;;;;4.43;2.10;;;;;;;;;;4955560;29;20314;-69
2023/07/14 05:24:22;;;;;;;1.77;1.67;;;;;;;;;;4955825;29;20203;-70
2023/07/14 06:55:09;;;;;;;2.58;1.63;;;;;;;;;;5023650;23;20238;-68
2023/07/14 06:57:36;;;;;;;1.75;1.63;;;;;;;;;;4977248;28;20207;-68
2023/07/14 07:00:05;;;;;;;1.67;1.35;;;;;;;;;;4977480;28;20199;-68
2023/07/14 07:02:32;;;;;;;2.38;1.30;;;;;;;;;;4977429;28;20199;-67
2023/07/14 07:04:59;;;;;;;1.48;1.38;;;;;;;;;;4977345;28;20231;-66
2023/07/14 07:07:26;;;;;;;1.77;1.50;;;;;;;;;;4977597;28;20578;-67
2023/07/14 07:09:55;;;;;;;1.40;1.30;;;;;;;;;;4977201;28;20558;-67
2023/07/14 07:12:23;;;;;;;4.10;1.80;;;;;;;;;;4977327;28;20290;-67
2023/07/14 07:14:50;;;;;;;2.50;1.10;;;;;;;;;;4977251;28;20226;-67
2023/07/14 07:17:18;;;;;;;1.08;0.90;;;;;;;;;;4977079;28;20195;-67
2023/07/14 07:19:45;;;;;;;1.60;1.17;;;;;;;;;;4977288;28;20202;-67
2023/07/14 07:22:12;;;;;;;1.05;1.00;;;;;;;;;;4977254;28;20210;-68
2023/07/14 07:24:39;;;;;;;1.50;1.00;;;;;;;;;;4977065;28;20253;-67
2023/07/14 07:27:06;;;;;;;1.25;1.10;;;;;;;;;;4977163;28;20665;-68
2023/07/14 07:29:35;;;;;;;1.00;1.00;;;;;;;;;;4976996;28;20230;-67
2023/07/14 07:32:03;;;;;;;1.45;1.10;;;;;;;;;;4977032;28;20191;-67
2023/07/14 07:34:30;;;;;;;0.98;0.98;;;;;;;;;;4976581;28;20701;-67
2023/07/14 07:36:57;;;;;;;2.38;0.90;;;;;;;;;;4976900;28;20214;-67
2023/07/14 07:39:24;;;;;;;0.82;0.82;;;;;;;;;;4976543;28;20697;-67
2023/07/14 07:41:51;;;;;;;1.30;1.20;;;;;;;;;;4976738;28;20206;-67
2023/07/14 07:44:19;;;;;;;1.10;1.00;;;;;;;;;;4976824;28;20234;-67
2023/07/14 07:46:47;;;;;;;0.80;0.80;;;;;;;;;;4976835;28;20214;-67
2023/07/14 07:49:14;;;;;;;0.95;0.85;;;;;;;;;;4976837;28;20210;-67
2023/07/14 07:51:41;;;;;;;0.85;0.85;;;;;;;;;;4976780;28;20222;-67
2023/07/14 07:54:08;;;;;;;0.80;0.80;;;;;;;;;;4976969;28;20227;-67
2023/07/14 07:56:36;;;;;;;0.93;0.88;;;;;;;;;;4976390;28;20580;-67
2023/07/14 07:59:03;;;;;;;1.35;1.20;;;;;;;;;;4976567;28;20250;-67
2023/07/14 08:01:30;;;;;;;0.85;0.85;;;;;;;;;;4975028;28;20667;-67
2023/07/14 08:03:58;;;;;;;0.63;0.60;;;;;;;;;;4976621;28;20226;-68
2023/07/14 08:06:27;;;;;;;0.80;0.80;;;;;;;;;;4977086;28;20211;-68
2023/07/14 08:08:54;;;;;;;0.80;0.80;;;;;;;;;;4976466;28;20203;-68
2023/07/14 08:11:21;;;;;;;0.80;0.80;;;;;;;;;;4976402;28;20221;-68
2023/07/14 08:13:48;;;;;;;1.40;0.80;;;;;;;;;;4975870;28;20729;-69
2023/07/14 08:16:15;;;;;;;1.00;1.00;;;;;;;;;;4976161;28;20206;-68
2023/07/14 08:18:42;;;;;;;0.70;0.70;;;;;;;;;;4976195;28;20207;-68
2023/07/14 08:21:10;;;;;;;0.73;0.70;;;;;;;;;;4976085;28;20210;-68
2023/07/14 08:23:40;;;;;;;1.65;1.10;;;;;;;;;;4976272;28;20226;-68
2023/07/14 08:26:08;;;;;;;0.80;0.80;;;;;;;;;;4976132;28;20693;-68
2023/07/14 08:28:35;;;;;;;1.05;1.05;;;;;;;;;;4978263;28;20245;-69
2023/07/14 08:31:04;;;;;;;0.88;0.88;;;;;;;;;;4987813;28;20686;-69
2023/07/14 08:33:31;;;;;;;0.90;0.90;;;;;;;;;;4987681;28;20230;-69
2023/07/14 08:36:00;;;;;;;0.80;0.80;;;;;;;;;;4986607;28;20206;-69
2023/07/14 08:38:28;;;;;;;0.77;0.77;;;;;;;;;;4982915;28;20220;-69
2023/07/14 08:40:58;;;;;;;0.85;0.85;;;;;;;;;;4976097;28;20203;-69
2023/07/14 08:43:30;;;;;;;0.98;0.98;;;;;;;;;;4975799;28;20227;-68
2023/07/14 08:45:58;;;;;;;0.95;0.95;;;;;;;;;;4975848;28;20194;-69
2023/07/14 08:48:31;;;;;;;1.80;1.10;;;;;;;;;;4975761;28;20210;-69
2023/07/14 08:51:02;;;;;;;1.15;1.15;;;;;;;;;;4975714;28;20255;-68
2023/07/14 08:53:33;;;;;;;0.98;0.90;;;;;;;;;;4975556;28;20277;-69
2023/07/14 08:56:03;;;;;;;1.85;0.93;;;;;;;;;;4975383;28;20242;-68
2023/07/14 08:58:31;;;;;;;0.85;0.80;;;;;;;;;;4975690;28;20199;-69
2023/07/14 09:01:03;;;;;;;0.98;0.70;;;;;;;;;;4975973;28;20195;-69
2023/07/14 09:03:36;;;;;;;0.80;0.80;;;;;;;;;;4975589;28;20741;-69
2023/07/14 09:06:05;;;;;;;0.95;0.95;;;;;;;;;;4975939;28;20214;-68
2023/07/14 09:08:33;;;;;;;0.98;0.98;;;;;;;;;;4975585;28;20218;-69
2023/07/14 09:11:02;;;;;;;1.05;1.05;;;;;;;;;;4975927;28;20218;-68
2023/07/14 09:13:41;;;;;;;0.95;0.95;;;;;;;;;;4975326;28;20227;-68
2023/07/14 09:16:09;;;;;;;3.08;0.88;;;;;;;;;;4976120;28;20195;-68
2023/07/14 09:18:42;;;;;;;0.95;0.93;;;;;;;;;;4975139;28;20218;-68
2023/07/14 09:21:13;;;;;;;1.00;0.85;;;;;;;;;;4975198;28;20569;-68
2023/07/14 09:23:48;;;;;;;0.88;0.88;;;;;;;;;;4974960;28;20226;-68
2023/07/14 09:26:20;;;;;;;0.70;0.70;;;;;;;;;;4975195;28;20183;-69
2023/07/14 09:28:49;;;;;;;0.90;0.90;;;;;;;;;;4974983;28;20191;-69
2023/07/14 09:31:21;;;;;;;0.80;0.80;;;;;;;;;;4974558;28;20590;-69
2023/07/14 09:33:49;;;;;;;0.80;0.80;;;;;;;;;;4974585;28;20733;-68
2023/07/14 09:36:16;;;;;;;0.95;0.95;;;;;;;;;;4974868;28;20303;-68
2023/07/14 09:38:47;;;;;;;0.70;0.70;;;;;;;;;;4974896;28;20207;-68
2023/07/14 09:41:16;;;;;;;0.80;0.80;;;;;;;;;;4974930;28;20187;-68
2023/07/14 09:43:43;;;;;;;0.82;0.82;;;;;;;;;;4974754;28;20237;-68
2023/07/14 09:46:11;;;;;;;1.05;0.88;;;;;;;;;;4974882;28;20206;-68
2023/07/14 09:48:43;;;;;;;0.70;0.70;;;;;;;;;;4974762;28;20233;-69
2023/07/14 09:51:13;;;;;;;1.40;0.95;;;;;;;;;;4974707;28;20210;-69
2023/07/14 09:53:56;;;;;;;1.13;0.70;;;;;;;;;;4974677;28;20222;-68
2023/07/14 09:56:27;;;;;;;0.90;0.90;;;;;;;;;;4974209;28;20682;-68
2023/07/14 09:58:55;;;;;;;0.98;0.98;;;;;;;;;;4974723;28;20191;-68
2023/07/14 10:01:22;;;;;;;0.65;0.65;;;;;;;;;;4974399;28;20195;-68
2023/07/14 10:03:51;;;;;;;0.75;0.75;;;;;;;;;;4974552;28;20222;-68
2023/07/14 10:06:22;;;;;;;0.73;0.73;;;;;;;;;;4974732;28;20217;-68
2023/07/14 10:08:54;;;;;;;1.02;0.93;;;;;;;;;;4974649;28;20195;-67
2023/07/14 10:11:24;;;;;;;0.90;0.90;;;;;;;;;;4974429;28;20761;-68
2023/07/14 10:13:54;;;;;;;1.33;0.90;;;;;;;;;;4974268;28;20741;-68
2023/07/14 10:16:22;;;;;;;0.85;0.85;;;;;;;;;;4974588;28;20323;-68
2023/07/14 10:18:51;;;;;;;0.80;0.80;;;;;;;;;;4974528;28;20210;-68
2023/07/14 10:21:23;;;;;;;0.93;0.93;;;;;;;;;;4974422;28;20195;-68
2023/07/14 10:23:59;;;;;;;1.00;1.00;;;;;;;;;;4975198;28;20218;-68
2023/07/14 10:26:29;;;;;;;0.68;0.68;;;;;;;;;;4978071;28;20210;-68
2023/07/14 10:28:57;;;;;;;1.17;1.08;;;;;;;;;;4978084;28;20258;-68
2023/07/14 10:31:28;;;;;;;0.90;0.90;;;;;;;;;;4978017;28;20223;-68
2023/07/14 10:34:03;;;;;;;1.02;0.90;;;;;;;;;;4977960;28;20233;-68
2023/07/14 10:36:33;;;;;;;0.82;0.50;;;;;;;;;;4978183;28;20190;-68
2023/07/14 10:39:06;;;;;;;1.00;1.00;;;;;;;;;;4978261;28;20214;-68
2023/07/14 10:41:34;;;;;;;1.10;0.73;;;;;;;;;;4977983;28;20194;-68
2023/07/14 10:44:03;;;;;;;0.90;0.90;;;;;;;;;;4978015;28;20266;-67
2023/07/14 10:46:36;;;;;;;2.42;1.05;;;;;;;;;;4977795;28;20203;-68
2023/07/14 10:49:05;;;;;;;0.77;0.77;;;;;;;;;;4977763;28;20183;-68
2023/07/14 10:51:36;;;;;;;1.00;1.00;;;;;;;;;;4977447;28;20772;-68
2023/07/14 10:54:05;;;;;;;0.80;0.80;;;;;;;;;;4977789;28;20257;-68
2023/07/14 10:56:35;;;;;;;1.02;0.93;;;;;;;;;;4977350;28;20688;-69
2023/07/14 10:59:08;;;;;;;0.90;0.90;;;;;;;;;;4977879;28;20245;-71
2023/07/14 11:01:36;;;;;;;0.90;0.90;;;;;;;;;;4977453;28;20549;-71
2023/07/14 11:04:08;;;;;;;0.80;0.80;;;;;;;;;;4977459;28;20219;-71
2023/07/14 11:06:36;;;;;;;0.82;0.82;;;;;;;;;;4977394;28;20642;-71
2023/07/14 11:09:03;;;;;;;0.80;0.80;;;;;;;;;;4977939;28;20210;-71
2023/07/14 11:11:37;;;;;;;0.70;0.70;;;;;;;;;;4977169;28;20215;-71
2023/07/14 11:14:12;;;;;;;0.85;0.85;;;;;;;;;;4977176;28;20223;-71
2023/07/14 11:16:47;;;;;;;0.80;0.80;;;;;;;;;;4977529;28;20278;-71
2023/07/14 11:19:18;;;;;;;0.80;0.80;;;;;;;;;;4977055;28;20554;-71
2023/07/14 11:21:48;;;;;;;0.80;0.80;;;;;;;;;;4977250;28;20203;-70
2023/07/14 11:24:18;;;;;;;0.95;0.93;;;;;;;;;;4978119;28;20222;-68
2023/07/14 11:26:53;;;;;;;0.90;0.90;;;;;;;;;;4977363;28;20195;-68
2023/07/14 11:29:22;;;;;;;0.75;0.75;;;;;;;;;;4977123;28;20197;-70
2023/07/14 11:31:52;;;;;;;0.77;0.77;;;;;;;;;;4976915;28;20223;-68
2023/07/14 11:34:24;;;;;;;0.88;0.88;;;;;;;;;;4976697;28;20302;-69
2023/07/14 11:36:56;;;;;;;1.15;1.00;;;;;;;;;;4977045;28;20591;-69
2023/07/14 11:39:26;;;;;;;1.15;0.80;;;;;;;;;;4977008;28;20535;-70
2023/07/14 11:41:53;;;;;;;1.15;1.05;;;;;;;;;;4977088;28;20183;-70
2023/07/14 11:44:22;;;;;;;1.65;0.90;;;;;;;;;;4976902;28;20226;-69
2023/07/14 11:46:50;;;;;;;1.73;1.10;;;;;;;;;;4976739;28;20555;-70
2023/07/14 11:49:25;;;;;;;0.90;0.90;;;;;;;;;;4976619;28;20203;-69
2023/07/14 11:51:53;;;;;;;0.98;0.82;;;;;;;;;;4976443;28;20258;-68
2023/07/14 11:54:21;;;;;;;1.15;1.15;;;;;;;;;;4976719;28;20227;-68
2023/07/14 11:57:00;;;;;;;1.00;1.00;;;;;;;;;;4976331;28;20303;-68
2023/07/14 11:59:29;;;;;;;1.77;0.65;;;;;;;;;;4976539;28;20187;-67
2023/07/14 12:01:57;;;;;;;0.93;0.90;;;;;;;;;;4976878;28;20230;-69
2023/07/14 12:04:27;;;;;;;0.80;0.80;;;;;;;;;;4976494;28;20222;-68
2023/07/14 12:07:05;;;;;;;0.77;0.70;;;;;;;;;;4977004;28;20287;-69
2023/07/14 12:09:33;;;;;;;1.00;1.00;;;;;;;;;;4976435;28;20189;-68
2023/07/14 12:12:02;;;;;;;1.30;0.90;;;;;;;;;;4976083;28;20273;-69
2023/07/14 12:14:32;;;;;;;0.75;0.75;;;;;;;;;;4976217;28;20227;-68
2023/07/14 12:17:00;;;;;;;0.75;0.75;;;;;;;;;;4976470;28;20195;-68
2023/07/14 12:19:31;;;;;;;0.90;0.90;;;;;;;;;;4976318;28;20199;-68
2023/07/14 12:22:03;;;;;;;2.42;1.13;;;;;;;;;;4976684;28;20187;-68
2023/07/14 12:24:32;;;;;;;1.02;1.02;;;;;;;;;;4976041;28;20233;-70
2023/07/14 12:27:06;;;;;;;0.85;0.85;;;;;;;;;;4975929;28;20563;-69
2023/07/14 12:29:35;;;;;;;0.85;0.85;;;;;;;;;;4976029;28;20195;-67
2023/07/14 12:32:03;;;;;;;0.60;0.60;;;;;;;;;;4975783;28;20233;-68
2023/07/14 12:34:32;;;;;;;0.68;0.68;;;;;;;;;;4975762;28;20292;-69
2023/07/14 12:37:01;;;;;;;1.00;1.00;;;;;;;;;;4975788;28;20203;-69
2023/07/14 12:39:30;;;;;;;0.90;0.90;;;;;;;;;;4976039;28;20234;-69
2023/07/14 12:41:57;;;;;;;0.65;0.65;;;;;;;;;;4975761;28;20225;-70
2023/07/14 12:44:25;;;;;;;1.00;1.00;;;;;;;;;;4975803;28;20222;-70
2023/07/14 12:46:55;;;;;;;1.23;0.80;;;;;;;;;;4975042;28;20202;-70
2023/07/14 12:49:27;;;;;;;1.00;1.00;;;;;;;;;;4975647;28;20187;-68
2023/07/14 12:51:55;;;;;;;1.00;1.00;;;;;;;;;;4975398;28;20206;-68
2023/07/14 12:54:25;;;;;;;1.45;1.38;;;;;;;;;;4975730;28;20226;-68
2023/07/14 12:56:52;;;;;;;0.90;0.90;;;;;;;;;;4975070;28;20211;-68
2023/07/14 12:59:19;;;;;;;0.80;0.80;;;;;;;;;;4975515;28;20213;-68
2023/07/14 13:01:47;;;;;;;1.10;1.10;;;;;;;;;;4975288;28;20207;-68
2023/07/14 13:04:16;;;;;;;0.90;0.90;;;;;;;;;;4974886;28;20693;-68
2023/07/14 13:06:44;;;;;;;0.98;0.98;;;;;;;;;;4975391;28;20207;-70
2023/07/14 13:09:12;;;;;;;1.00;1.00;;;;;;;;;;4975344;28;20210;-71
2023/07/14 13:11:40;;;;;;;1.70;0.90;;;;;;;;;;4975508;28;20221;-71
2023/07/14 13:14:07;;;;;;;0.90;0.90;;;;;;;;;;4975094;28;20223;-71
2023/07/14 13:16:36;;;;;;;1.00;1.00;;;;;;;;;;4975266;28;20210;-70
2023/07/14 16:41:34;;;;;;;0.70;0.70;;;;;;;;;;4956461;28;20243;-67
2023/07/14 16:44:12;;;;;;;0.70;0.70;;;;;;;;;;5092434;27;21115;-70
2023/07/14 16:46:49;;;;;;;1.23;1.23;;;;;;;;;;5091925;28;20183;-68
2023/07/14 16:49:16;;;;;;;1.00;1.00;;;;;;;;;;5090766;28;20546;-70
2023/07/14 16:51:43;;;;;;;0.80;0.80;;;;;;;;;;5090988;28;20202;-71
2023/07/14 16:54:13;;;;;;;0.82;0.82;;;;;;;;;;5091043;28;20674;-69
2023/07/14 16:56:40;;;;;;;0.73;0.73;;;;;;;;;;5090841;28;20187;-69
2023/07/14 16:59:12;;;;;;;0.80;0.80;;;;;;;;;;5100331;22;20227;-72
2023/07/14 17:01:40;;;;;;;0.82;0.82;;;;;;;;;;5070769;28;20631;-71
2023/07/14 17:04:10;;;;;;;0.73;0.73;;;;;;;;;;5071232;28;20230;-72
2023/07/14 17:06:37;;;;;;;0.93;0.93;;;;;;;;;;5071384;28;20195;-72
2023/07/14 17:09:10;;;;;;;0.80;0.80;;;;;;;;;;5071154;28;20230;-71
2023/07/14 17:11:37;;;;;;;0.80;0.80;;;;;;;;;;5077030;28;20180;-72
2023/07/14 17:14:04;;;;;;;0.57;0.57;;;;;;;;;;5070316;28;20591;-71
2023/07/14 17:16:33;;;;;;;0.70;0.70;;;;;;;;;;5070203;28;20202;-70
2023/07/14 17:19:01;;;;;;;0.80;0.80;;;;;;;;;;5070320;28;20219;-71
2023/07/14 17:21:28;;;;;;;0.68;0.68;;;;;;;;;;5070129;28;20199;-71
2023/07/14 17:23:55;;;;;;;0.70;0.70;;;;;;;;;;5073603;28;20226;-72
2023/07/14 17:26:23;;;;;;;0.90;0.90;;;;;;;;;;5074668;28;20207;-71
2023/07/14 17:28:50;;;;;;;0.80;0.80;;;;;;;;;;5072121;28;20216;-72
2023/07/14 17:31:17;;;;;;;0.82;0.82;;;;;;;;;;5070190;28;20245;-71
2023/07/14 17:33:46;;;;;;;0.90;0.90;;;;;;;;;;5070011;28;20207;-71
2023/07/14 17:36:13;;;;;;;0.93;0.93;;;;;;;;;;5069891;28;20207;-71
2023/07/14 17:38:40;;;;;;;0.77;0.70;;;;;;;;;;5069639;28;20725;-71
2023/07/14 17:41:09;;;;;;;0.63;0.63;;;;;;;;;;5069621;28;20654;-71
2023/07/14 17:43:36;;;;;;;0.80;0.80;;;;;;;;;;5069952;28;20224;-71
2023/07/14 17:46:04;;;;;;;0.70;0.70;;;;;;;;;;5069580;28;20200;-71
2023/07/14 17:48:32;;;;;;;0.85;0.85;;;;;;;;;;5069438;28;20224;-71
2023/07/14 17:51:01;;;;;;;0.73;0.73;;;;;;;;;;5069950;28;20226;-71
2023/07/14 17:53:30;;;;;;;0.98;0.98;;;;;;;;;;5072764;28;20196;-73
2023/07/14 17:55:58;;;;;;;0.90;0.90;;;;;;;;;;5063875;28;20555;-71
2023/07/14 17:58:26;;;;;;;0.80;0.80;;;;;;;;;;5061593;28;20231;-71
2023/07/14 18:00:54;;;;;;;1.00;1.00;;;;;;;;;;5056406;28;20204;-70
2023/07/14 18:03:23;;;;;;;1.08;1.08;;;;;;;;;;5055992;28;20725;-71
2023/07/14 18:05:50;;;;;;;1.10;1.10;;;;;;;;;;5056321;28;20234;-71
2023/07/14 18:08:20;;;;;;;1.02;1.02;;;;;;;;;;5056294;28;20235;-71
2023/07/14 18:10:48;;;;;;;1.27;1.17;;;;;;;;;;5057213;28;20207;-70
2023/07/14 18:13:18;;;;;;;1.05;1.05;;;;;;;;;;5056041;28;20204;-71
2023/07/14 18:15:45;;;;;;;0.90;0.90;;;;;;;;;;5055794;28;20682;-70
2023/07/14 18:18:14;;;;;;;1.02;1.02;;;;;;;;;;5056007;28;20232;-70
2023/07/14 18:20:41;;;;;;;1.27;1.17;;;;;;;;;;5055912;28;20203;-70
2023/07/14 18:23:10;;;;;;;1.10;1.10;;;;;;;;;;5055640;28;20662;-70
2023/07/14 18:25:38;;;;;;;1.13;1.13;;;;;;;;;;5055984;28;20196;-71
2023/07/14 18:28:08;;;;;;;1.30;1.30;;;;;;;;;;5055688;28;20234;-71
2023/07/14 18:30:35;;;;;;;1.00;1.00;;;;;;;;;;5055777;28;20762;-71
2023/07/14 18:33:06;;;;;;;1.23;1.23;;;;;;;;;;5059467;28;20655;-71
2023/07/14 18:35:35;;;;;;;0.93;0.93;;;;;;;;;;5062349;28;20206;-71
2023/07/14 18:38:03;;;;;;;0.95;0.95;;;;;;;;;;5056401;28;20578;-71
2023/07/14 18:40:32;;;;;;;1.13;1.13;;;;;;;;;;5055476;28;20228;-71
2023/07/14 18:43:00;;;;;;;1.00;1.00;;;;;;;;;;5055540;28;20262;-71
2023/07/14 18:45:28;;;;;;;1.10;1.10;;;;;;;;;;5055457;28;20207;-71
2023/07/14 18:47:57;;;;;;;1.05;1.05;;;;;;;;;;5055504;28;20228;-71
2023/07/14 18:50:25;;;;;;;1.00;1.00;;;;;;;;;;5055285;28;20201;-71
2023/07/14 18:52:52;;;;;;;1.20;1.20;;;;;;;;;;5055053;28;20203;-72
2023/07/14 18:55:21;;;;;;;1.13;1.13;;;;;;;;;;5055909;28;20208;-70
2023/07/14 18:57:49;;;;;;;1.10;1.10;;;;;;;;;;5055123;28;20232;-70
2023/07/14 19:00:19;;;;;;;1.20;1.20;;;;;;;;;;5055351;28;20239;-71
2023/07/14 19:02:47;;;;;;;1.00;1.00;;;;;;;;;;5055244;28;20225;-70
2023/07/14 19:05:14;;;;;;;1.25;1.25;;;;;;;;;;5054696;28;20200;-71
2023/07/14 19:07:45;;;;;;;1.00;1.00;;;;;;;;;;5054724;28;20211;-71
2023/07/14 19:10:14;;;;;;;1.00;1.00;;;;;;;;;;5055399;28;20188;-71
2023/07/14 19:12:41;;;;;;;1.05;1.05;;;;;;;;;;5055260;28;20208;-71
2023/07/14 19:15:17;;;;;;;1.13;1.13;;;;;;;;;;5054904;28;20283;-71
2023/07/14 19:17:46;;;;;;;0.95;0.95;;;;;;;;;;5054891;28;20251;-71
2023/07/14 19:20:14;;;;;;;1.02;1.02;;;;;;;;;;5054815;28;20246;-73
2023/07/14 19:22:43;;;;;;;1.48;1.15;;;;;;;;;;5054553;28;20200;-72
2023/07/14 19:25:13;;;;;;;1.45;1.45;;;;;;;;;;5054634;28;20240;-71
2023/07/14 19:27:40;;;;;;;1.30;1.30;;;;;;;;;;5054569;28;20196;-71
2023/07/14 19:30:14;;;;;;;1.30;1.30;;;;;;;;;;5054783;28;20208;-72
2023/07/14 19:32:42;;;;;;;1.20;1.20;;;;;;;;;;5054622;28;20180;-71
2023/07/14 19:35:15;;;;;;;1.17;1.17;;;;;;;;;;5054256;28;20586;-71
2023/07/14 19:37:44;;;;;;;0.98;0.98;;;;;;;;;;5054734;28;20188;-71
2023/07/14 19:40:14;;;;;;;1.10;1.10;;;;;;;;;;5054506;28;20196;-71
2023/07/14 19:42:41;;;;;;;1.00;1.00;;;;;;;;;;5054404;28;20582;-71
2023/07/14 19:45:13;;;;;;;1.10;1.10;;;;;;;;;;5054410;28;20274;-71
2023/07/14 19:47:40;;;;;;;1.00;1.00;;;;;;;;;;5053838;28;20666;-71
2023/07/14 19:50:08;;;;;;;0.90;0.90;;;;;;;;;;5054861;28;20625;-71
2023/07/14 19:52:36;;;;;;;1.05;1.05;;;;;;;;;;5054066;28;20236;-69
2023/07/14 19:55:03;;;;;;;1.00;1.00;;;;;;;;;;5054367;28;20203;-70
2023/07/14 19:57:30;;;;;;;0.88;0.88;;;;;;;;;;5053663;28;20635;-71
2023/07/14 19:59:57;;;;;;;1.27;1.27;;;;;;;;;;5053698;28;20189;-72
2023/07/14 20:02:26;;;;;;;0.88;0.88;;;;;;;;;;5054033;28;20218;-71
2023/07/14 20:04:54;;;;;;;0.90;0.90;;;;;;;;;;5053718;28;20270;-70
2023/07/14 20:07:21;;;;;;;0.80;0.80;;;;;;;;;;5054025;28;20196;-72
2023/07/14 20:09:49;;;;;;;0.95;0.95;;;;;;;;;;5059977;28;20204;-70
2023/07/14 20:12:17;;;;;;;2.38;1.20;;;;;;;;;;5062563;28;20659;-70
2023/07/14 20:14:44;;;;;;;0.93;0.93;;;;;;;;;;5056284;28;20204;-70
2023/07/14 20:17:12;;;;;;;1.10;1.10;;;;;;;;;;5053540;28;20574;-69
2023/07/14 20:19:39;;;;;;;1.05;1.05;;;;;;;;;;5053497;28;20231;-69
2023/07/14 20:22:12;;;;;;;1.10;1.10;;;;;;;;;;5053609;28;20206;-69
2023/07/14 20:24:39;;;;;;;1.20;1.20;;;;;;;;;;5053377;28;20694;-70
2023/07/14 20:27:16;;;;;;;1.33;1.33;;;;;;;;;;5053515;28;20201;-70
2023/07/14 20:29:45;;;;;;;1.15;1.15;;;;;;;;;;5053598;28;20231;-71
2023/07/14 20:32:13;;;;;;;1.08;1.08;;;;;;;;;;5053640;28;20622;-71
2023/07/14 20:34:40;;;;;;;1.00;1.00;;;;;;;;;;5053615;28;20204;-70
2023/07/14 20:37:13;;;;;;;1.20;1.20;;;;;;;;;;5054366;28;20211;-69
2023/07/14 20:39:41;;;;;;;1.00;1.00;;;;;;;;;;5054186;28;20220;-70
2023/07/14 20:42:12;;;;;;;1.25;1.25;;;;;;;;;;5054362;28;20204;-70
2023/07/14 20:44:39;;;;;;;1.15;1.15;;;;;;;;;;5053443;28;20247;-71
2023/07/14 20:47:11;;;;;;;1.10;1.10;;;;;;;;;;5053456;28;20204;-73
2023/07/14 20:49:38;;;;;;;0.98;0.98;;;;;;;;;;5053554;28;20236;-72
2023/07/14 20:52:06;;;;;;;1.02;1.02;;;;;;;;;;5053622;28;20204;-72
2023/07/14 20:54:33;;;;;;;1.42;1.42;;;;;;;;;;5053379;28;20663;-71
2023/07/14 20:57:00;;;;;;;1.20;1.20;;;;;;;;;;5053370;28;20575;-71
2023/07/14 20:59:29;;;;;;;1.20;1.20;;;;;;;;;;5053072;28;20228;-70
2023/07/14 21:01:56;;;;;;;1.00;1.00;;;;;;;;;;5053443;28;20203;-71
2023/07/14 21:04:23;;;;;;;0.90;0.90;;;;;;;;;;5053650;28;20247;-71
2023/07/14 21:06:51;;;;;;;0.93;0.93;;;;;;;;;;5053413;28;20203;-71
2023/07/14 21:09:18;;;;;;;1.33;1.33;;;;;;;;;;5053360;28;20233;-72
2023/07/14 21:11:45;;;;;;;1.30;1.30;;;;;;;;;;5053789;28;20204;-71
2023/07/14 21:14:12;;;;;;;1.95;1.38;;;;;;;;;;5053494;28;20204;-71
2023/07/14 21:16:42;;;;;;;1.17;1.17;;;;;;;;;;5053418;28;20208;-71
